Time;durP1;ratioP1;P1;durP2;ratioP2;P2;SDS_P1;SDS_P2;PMS_P1;PMS_P2;Temp;Humidity;BMP_temperature;BMP_pressure;BME280_temperature;BME280_humidity;BME280_pressure;Samples;Min_cycle;Max_cycle;Signal;HPM_P1;HPM_P2
2023/08/14 00:02:02;;;;;;;5.38;1.60;;;21.80;99.90;;;;;;5010534;28;20037;-72
2023/08/14 00:04:28;;;;;;;4.63;1.65;;;21.80;99.90;;;;;;5007863;28;20034;-72
2023/08/14 00:06:54;;;;;;;4.15;1.48;;;21.80;99.90;;;;;;5010759;28;20607;-72
2023/08/14 00:09:20;;;;;;;6.97;1.80;;;21.80;99.90;;;;;;5010101;28;20088;-72
2023/08/14 00:11:46;;;;;;;4.32;1.50;;;21.80;99.90;;;;;;5008909;28;20414;-72
2023/08/14 00:14:11;;;;;;;6.03;1.85;;;21.60;99.90;;;;;;5009883;28;20069;-72
2023/08/14 00:16:37;;;;;;;2.65;1.33;;;21.60;99.90;;;;;;5010333;28;20034;-72
2023/08/14 00:19:03;;;;;;;4.63;1.67;;;21.60;99.90;;;;;;5009902;28;20057;-72
2023/08/14 00:21:29;;;;;;;2.13;1.20;;;21.60;99.90;;;;;;5009603;28;20041;-72
2023/08/14 00:23:55;;;;;;;4.78;1.33;;;21.60;99.90;;;;;;5009189;28;20458;-72
2023/08/14 00:26:21;;;;;;;3.22;1.38;;;21.70;99.90;;;;;;5009479;28;20038;-72
2023/08/14 00:28:46;;;;;;;9.63;1.40;;;21.80;99.90;;;;;;5005710;28;20405;-72
2023/08/14 00:31:12;;;;;;;3.15;1.00;;;21.80;99.90;;;;;;5009265;28;20041;-72
2023/08/14 00:33:38;;;;;;;3.45;1.67;;;21.80;99.90;;;;;;5007673;28;20034;-72
2023/08/14 00:36:05;;;;;;;7.20;1.20;;;21.60;99.90;;;;;;5009608;28;20038;-72
2023/08/14 00:38:31;;;;;;;3.70;1.42;;;21.50;99.90;;;;;;5009764;28;20030;-72
2023/08/14 00:40:57;;;;;;;3.95;1.40;;;21.60;99.90;;;;;;5009089;28;20363;-72
2023/08/14 00:43:23;;;;;;;2.80;1.30;;;21.60;99.90;;;;;;5008856;28;20061;-72
2023/08/14 00:45:54;;;;;;;3.80;1.42;;;21.70;99.90;;;;;;5011801;28;20065;-72
2023/08/14 00:48:20;;;;;;;5.75;1.85;;;21.70;99.90;;;;;;5009736;28;20529;-72
2023/08/14 00:50:46;;;;;;;7.15;1.77;;;21.70;99.90;;;;;;5009141;28;20117;-72
2023/08/14 00:53:14;;;;;;;3.42;1.33;;;21.80;99.90;;;;;;5009371;28;20033;-72
2023/08/14 00:55:40;;;;;;;3.08;1.30;;;21.80;99.90;;;;;;5010898;28;20041;-72
2023/08/14 00:58:07;;;;;;;2.78;1.40;;;21.80;99.90;;;;;;5009946;28;20030;-72
2023/08/14 01:00:34;;;;;;;2.35;0.90;;;21.90;99.90;;;;;;5010952;28;20022;-73
2023/08/14 01:03:02;;;;;;;3.22;1.08;;;21.90;99.90;;;;;;5006495;28;20062;-73
2023/08/14 01:05:28;;;;;;;6.07;1.10;;;21.90;99.90;;;;;;5003108;28;20453;-72
2023/08/14 01:07:53;;;;;;;4.00;1.30;;;22.00;99.90;;;;;;5005540;28;20494;-72
2023/08/14 01:10:20;;;;;;;3.88;1.38;;;22.00;99.90;;;;;;5009412;28;20539;-72
2023/08/14 01:13:40;;;;;;;1.90;1.23;;;22.00;99.90;;;;;;5007757;28;20103;-72
2023/08/14 01:16:14;;;;;;;4.23;1.50;;;22.20;99.90;;;;;;5019746;28;20100;-72
2023/08/14 01:18:42;;;;;;;1.65;1.00;;;22.30;99.90;;;;;;5040045;28;20029;-72
2023/08/14 01:21:17;;;;;;;2.92;1.17;;;22.20;99.90;;;;;;5041671;28;20033;-73
2023/08/14 01:24:20;;;;;;;2.20;1.50;;;22.20;99.90;;;;;;5037489;28;20068;-71
2023/08/14 01:26:47;;;;;;;5.28;1.33;;;22.30;99.90;;;;;;5009384;28;20165;-71
2023/08/14 01:29:13;;;;;;;1.85;1.05;;;22.30;99.90;;;;;;5007807;28;20687;-71
2023/08/14 01:31:39;;;;;;;2.70;1.30;;;22.20;99.90;;;;;;5009086;28;20037;-71
2023/08/14 01:34:05;;;;;;;2.25;1.50;;;22.20;99.90;;;;;;5008934;28;20441;-71
2023/08/14 01:36:42;;;;;;;2.40;1.30;;;22.30;99.90;;;;;;5009817;28;20025;-72
2023/08/14 01:39:16;;;;;;;3.83;1.23;;;22.30;99.90;;;;;;5008225;28;20401;-72
2023/08/14 01:41:47;;;;;;;3.08;1.15;;;22.20;99.90;;;;;;5013513;28;20026;-72
2023/08/14 01:44:17;;;;;;;4.75;1.23;;;22.30;99.90;;;;;;5008823;28;20034;-72
2023/08/14 01:46:45;;;;;;;5.85;0.98;;;22.30;99.90;;;;;;5008371;28;20042;-71
2023/08/14 01:49:16;;;;;;;8.80;1.55;;;22.20;99.90;;;;;;5008756;28;20034;-72
2023/08/14 01:51:42;;;;;;;;;;;22.20;99.90;;;;;;5007410;28;20034;-71
2023/08/14 01:54:09;;;;;;;2.65;1.00;;;22.00;99.90;;;;;;5004306;28;19925;-71
2023/08/14 01:56:35;;;;;;;2.60;1.10;;;22.00;99.90;;;;;;5008092;28;20036;-72
2023/08/14 01:59:01;;;;;;;1.65;1.13;;;22.00;99.90;;;;;;5008488;28;20547;-71
2023/08/14 02:01:27;;;;;;;3.78;1.20;;;21.90;99.90;;;;;;5008589;28;20033;-72
2023/08/14 02:03:52;;;;;;;2.20;1.23;;;21.90;99.90;;;;;;5005964;28;20052;-72
2023/08/14 02:06:18;;;;;;;3.25;1.15;;;21.80;99.90;;;;;;5008622;28;20084;-71
2023/08/14 02:08:44;;;;;;;3.55;1.08;;;21.90;99.90;;;;;;5008641;28;20065;-72
2023/08/14 02:11:10;;;;;;;1.88;1.13;;;21.90;99.90;;;;;;5006529;28;20037;-72
2023/08/14 02:13:36;;;;;;;6.32;1.90;;;21.80;99.90;;;;;;5007571;28;20030;-72
2023/08/14 02:16:03;;;;;;;5.38;1.27;;;21.80;99.90;;;;;;5008217;28;20033;-71
2023/08/14 02:18:28;;;;;;;2.53;1.23;;;21.90;99.90;;;;;;5007623;28;20065;-71
2023/08/14 02:20:54;;;;;;;2.72;1.63;;;21.90;99.90;;;;;;5007822;28;20081;-71
2023/08/14 02:23:20;;;;;;;2.65;1.40;;;21.90;99.90;;;;;;5008609;28;20502;-71
2023/08/14 02:25:46;;;;;;;5.88;1.20;;;22.00;99.90;;;;;;5040944;28;20038;-71
2023/08/14 02:28:12;;;;;;;1.88;1.23;;;22.00;99.90;;;;;;5041795;28;20029;-71
2023/08/14 02:30:42;;;;;;;2.15;0.88;;;21.90;99.90;;;;;;5039305;28;20058;-71
2023/08/14 02:33:09;;;;;;;2.37;1.07;;;21.80;99.90;;;;;;5008711;28;20398;-71
2023/08/14 02:35:36;;;;;;;1.80;1.10;;;21.90;99.90;;;;;;5040902;28;20279;-71
2023/08/14 02:38:06;;;;;;;2.33;1.17;;;21.80;99.90;;;;;;5042115;28;20076;-71
2023/08/14 02:40:32;;;;;;;8.80;1.90;;;21.70;99.90;;;;;;5008842;28;20513;-71
2023/08/14 02:43:02;;;;;;;8.73;1.63;;;21.70;99.90;;;;;;5044672;28;20041;-71
2023/08/14 02:45:28;;;;;;;4.13;1.35;;;21.60;99.90;;;;;;5018098;28;20088;-71
2023/08/14 02:47:54;;;;;;;5.53;1.23;;;21.60;99.90;;;;;;5006861;28;20433;-71
2023/08/14 02:50:21;;;;;;;2.03;1.10;;;21.50;99.90;;;;;;5007936;28;20034;-71
2023/08/14 02:52:48;;;;;;;2.55;0.85;;;21.50;99.90;;;;;;5007883;28;20073;-71
2023/08/14 02:55:14;;;;;;;2.75;1.48;;;21.40;99.90;;;;;;5007996;28;20026;-71
2023/08/14 02:57:40;;;;;;;2.75;1.27;;;21.40;99.90;;;;;;5010170;28;20505;-71
2023/08/14 03:00:07;;;;;;;5.35;1.77;;;21.40;99.90;;;;;;5011564;28;20496;-72
2023/08/14 03:02:34;;;;;;;4.25;1.80;;;21.30;99.90;;;;;;4979155;28;20124;-71
2023/08/14 03:05:00;;;;;;;4.18;1.33;;;21.20;99.90;;;;;;5012480;28;20034;-71
2023/08/14 03:07:26;;;;;;;5.05;1.77;;;21.10;99.90;;;;;;5012794;28;20022;-71
2023/08/14 03:09:53;;;;;;;3.80;1.15;;;21.10;99.90;;;;;;5012651;28;20036;-71
2023/08/14 03:12:19;;;;;;;2.53;1.15;;;21.10;99.90;;;;;;5011650;28;20033;-71
2023/08/14 03:14:44;;;;;;;5.53;1.58;;;21.10;99.90;;;;;;5011052;28;20128;-71
2023/08/14 03:17:10;;;;;;;3.47;1.15;;;21.00;99.90;;;;;;5011540;28;20026;-71
2023/08/14 03:19:36;;;;;;;6.00;1.77;;;21.10;99.90;;;;;;5013266;28;20356;-72
2023/08/14 03:22:02;;;;;;;3.55;1.60;;;21.10;99.90;;;;;;5013518;28;20026;-71
2023/08/14 03:24:28;;;;;;;2.80;1.40;;;20.90;99.90;;;;;;5012647;28;20022;-71
2023/08/14 03:26:53;;;;;;;2.30;1.10;;;20.60;99.90;;;;;;5013542;28;20029;-71
2023/08/14 03:29:19;;;;;;;3.08;1.60;;;20.70;99.90;;;;;;5013587;28;20034;-71
2023/08/14 03:31:45;;;;;;;2.90;1.30;;;20.50;99.90;;;;;;5012171;28;20390;-71
2023/08/14 03:34:11;;;;;;;2.35;1.45;;;20.50;99.90;;;;;;5011914;28;20030;-71
2023/08/14 03:36:36;;;;;;;4.10;1.05;;;20.60;99.90;;;;;;5021935;28;20041;-71
2023/08/14 03:39:02;;;;;;;3.70;1.67;;;20.60;99.90;;;;;;5028583;28;20033;-71
2023/08/14 03:41:28;;;;;;;2.97;1.67;;;20.70;99.90;;;;;;5013391;28;20056;-71
2023/08/14 03:43:54;;;;;;;2.75;1.67;;;20.60;99.90;;;;;;5011675;28;20065;-71
2023/08/14 03:46:19;;;;;;;5.47;1.75;;;20.60;99.90;;;;;;5011224;28;20041;-71
2023/08/14 03:48:45;;;;;;;2.63;1.63;;;20.60;99.90;;;;;;5012433;28;20037;-72
2023/08/14 03:51:11;;;;;;;6.70;1.63;;;20.50;99.90;;;;;;5013537;28;20512;-71
2023/08/14 03:53:37;;;;;;;4.47;1.40;;;20.50;99.90;;;;;;5007659;28;20501;-72
2023/08/14 03:56:03;;;;;;;4.07;2.05;;;20.60;99.90;;;;;;5013479;28;20107;-72
2023/08/14 03:58:28;;;;;;;5.50;1.73;;;20.50;99.90;;;;;;5013733;28;20058;-72
2023/08/14 04:00:54;;;;;;;6.13;1.65;;;20.50;99.90;;;;;;5012711;28;20026;-72
2023/08/14 04:03:21;;;;;;;8.55;2.17;;;20.50;99.90;;;;;;5011627;28;20030;-72
2023/08/14 04:05:47;;;;;;;2.22;1.30;;;20.50;99.90;;;;;;5013132;28;20030;-72
2023/08/14 04:08:14;;;;;;;3.15;1.38;;;20.40;99.90;;;;;;5012144;28;20033;-72
2023/08/14 04:10:40;;;;;;;4.53;1.27;;;20.30;99.90;;;;;;5011076;28;20037;-72
2023/08/14 04:13:06;;;;;;;3.95;2.33;;;20.20;99.90;;;;;;5011934;28;20486;-72
2023/08/14 04:15:32;;;;;;;4.90;3.28;;;20.30;99.90;;;;;;5008955;28;20026;-72
2023/08/14 04:17:57;;;;;;;3.17;1.55;;;20.30;99.90;;;;;;5010702;28;20022;-72
2023/08/14 04:20:23;;;;;;;3.33;1.38;;;20.30;99.90;;;;;;5012182;28;20033;-72
2023/08/14 04:22:49;;;;;;;3.72;1.55;;;20.30;99.90;;;;;;5011221;28;20111;-72
2023/08/14 04:25:17;;;;;;;3.55;1.52;;;20.30;99.90;;;;;;5011757;28;20075;-72
2023/08/14 04:27:42;;;;;;;3.90;1.60;;;20.20;99.90;;;;;;5011135;28;20033;-72
2023/08/14 04:30:08;;;;;;;5.72;2.00;;;20.30;99.90;;;;;;5010589;28;20033;-72
2023/08/14 04:32:35;;;;;;;5.07;1.67;;;20.40;99.90;;;;;;5011578;28;20038;-72
2023/08/14 04:35:01;;;;;;;6.50;1.95;;;20.20;99.90;;;;;;5010106;28;20030;-72
2023/08/14 04:37:26;;;;;;;2.60;1.20;;;20.20;99.90;;;;;;5011496;28;20026;-72
2023/08/14 04:39:52;;;;;;;2.70;1.20;;;20.20;99.90;;;;;;5011455;28;20628;-72
2023/08/14 04:42:18;;;;;;;2.88;1.50;;;20.20;99.90;;;;;;5022808;22;20053;-70
2023/08/14 04:44:45;;;;;;;6.68;1.80;;;20.30;99.90;;;;;;4995613;28;20083;-70
2023/08/14 04:47:11;;;;;;;3.58;1.48;;;20.30;99.90;;;;;;4991826;28;20478;-70
2023/08/14 04:49:36;;;;;;;3.08;1.40;;;20.30;99.90;;;;;;4991834;28;20034;-70
2023/08/14 04:52:02;;;;;;;3.83;1.63;;;20.40;99.90;;;;;;4994307;28;20124;-70
2023/08/14 04:54:28;;;;;;;2.20;1.15;;;20.30;99.90;;;;;;4975802;28;20116;-69
2023/08/14 04:56:54;;;;;;;2.85;1.77;;;20.30;99.90;;;;;;5003592;28;20128;-69
2023/08/14 04:59:20;;;;;;;2.25;1.30;;;20.20;99.90;;;;;;4999242;28;20038;-69
2023/08/14 05:01:45;;;;;;;2.65;1.13;;;20.20;99.90;;;;;;4998353;28;20030;-69
2023/08/14 05:04:11;;;;;;;8.20;1.45;;;20.20;99.90;;;;;;4994163;28;20034;-69
2023/08/14 05:06:37;;;;;;;4.30;1.50;;;20.40;99.90;;;;;;5011703;28;20041;-67
2023/08/14 05:09:03;;;;;;;6.75;1.27;;;20.40;99.90;;;;;;5008064;28;20116;-68
2023/08/14 05:11:30;;;;;;;3.30;1.25;;;20.60;99.90;;;;;;4990615;28;20627;-68
2023/08/14 05:13:56;;;;;;;4.05;1.48;;;20.60;99.90;;;;;;4999329;28;20349;-68
2023/08/14 05:16:22;;;;;;;6.45;1.60;;;20.60;99.90;;;;;;5008224;28;20520;-68
2023/08/14 05:18:48;;;;;;;2.30;1.50;;;20.60;99.90;;;;;;5004783;28;20029;-67
2023/08/14 05:21:14;;;;;;;3.53;1.65;;;20.70;99.90;;;;;;5003119;28;20018;-68
2023/08/14 05:23:40;;;;;;;4.03;1.63;;;20.80;99.90;;;;;;5001178;28;20022;-67
2023/08/14 05:26:05;;;;;;;3.38;1.30;;;20.90;99.90;;;;;;5001065;28;20553;-68
2023/08/14 05:28:32;;;;;;;2.00;1.08;;;21.10;99.90;;;;;;5001183;28;20029;-68
2023/08/14 05:30:57;;;;;;;1.58;1.10;;;21.20;99.90;;;;;;5001515;28;20390;-68
2023/08/14 05:33:23;;;;;;;2.38;1.23;;;21.20;99.90;;;;;;4998867;28;20037;-68
2023/08/14 05:35:49;;;;;;;3.03;1.50;;;21.30;99.90;;;;;;5002808;28;20038;-68
2023/08/14 05:38:15;;;;;;;2.75;1.27;;;21.20;99.90;;;;;;5010484;28;20055;-67
2023/08/14 05:40:41;;;;;;;5.72;1.80;;;21.10;99.90;;;;;;5008253;28;20486;-67
2023/08/14 05:43:10;;;;;;;5.15;1.58;;;21.30;99.90;;;;;;5006446;28;20045;-69
2023/08/14 05:45:44;;;;;;;3.55;1.58;;;21.30;99.90;;;;;;5007270;28;20092;-69
2023/08/14 05:48:12;;;;;;;4.38;1.30;;;21.50;99.90;;;;;;5008786;28;20038;-68
2023/08/14 05:50:38;;;;;;;3.03;1.63;;;21.30;99.90;;;;;;4998989;28;20046;-68
2023/08/14 05:53:06;;;;;;;2.45;1.10;;;21.50;99.90;;;;;;4973938;28;20031;-67
2023/08/14 05:55:37;;;;;;;2.03;1.13;;;21.50;99.90;;;;;;5006890;28;20105;-66
2023/08/14 05:58:04;;;;;;;4.20;1.77;;;21.70;99.90;;;;;;5014912;28;20156;-67
2023/08/14 06:00:30;;;;;;;2.38;1.65;;;22.00;99.90;;;;;;5029155;28;20029;-67
2023/08/14 06:02:56;;;;;;;6.38;1.73;;;22.10;99.90;;;;;;5000762;28;20030;-67
2023/08/14 06:05:23;;;;;;;5.88;1.38;;;22.00;99.90;;;;;;5011021;28;20493;-66
2023/08/14 06:07:50;;;;;;;4.70;1.42;;;22.10;99.90;;;;;;5005202;28;20066;-67
2023/08/14 06:10:16;;;;;;;3.53;1.27;;;22.30;99.90;;;;;;5007003;28;20401;-66
2023/08/14 06:12:44;;;;;;;2.78;1.63;;;22.50;99.90;;;;;;5009288;28;20029;-67
2023/08/14 06:15:13;;;;;;;5.32;1.20;;;22.50;99.90;;;;;;5010349;28;20029;-67
2023/08/14 06:17:39;;;;;;;2.05;1.27;;;22.30;99.90;;;;;;4999545;28;20030;-66
2023/08/14 06:20:06;;;;;;;3.40;1.50;;;22.10;99.90;;;;;;5007024;28;20030;-67
2023/08/14 06:22:32;;;;;;;1.35;0.90;;;22.10;99.90;;;;;;4992400;28;20036;-66
2023/08/14 06:24:57;;;;;;;2.50;1.50;;;22.40;99.90;;;;;;4991159;28;20038;-66
2023/08/14 06:27:23;;;;;;;2.67;1.13;;;22.70;99.90;;;;;;5003763;28;20040;-64
2023/08/14 06:29:49;;;;;;;2.40;1.20;;;22.60;99.90;;;;;;5011359;28;20073;-65
2023/08/14 06:32:15;;;;;;;7.97;2.17;;;22.70;99.90;;;;;;5004884;28;20042;-66
2023/08/14 06:34:41;;;;;;;1.95;1.08;;;22.80;99.90;;;;;;5005368;28;20470;-67
2023/08/14 06:37:07;;;;;;;2.85;1.27;;;22.80;99.90;;;;;;5011592;28;20065;-66
2023/08/14 06:39:33;;;;;;;1.42;1.02;;;22.90;99.90;;;;;;5019546;28;20018;-66
2023/08/14 06:41:59;;;;;;;5.72;2.35;;;23.20;99.90;;;;;;5000647;28;20065;-67
2023/08/14 06:44:24;;;;;;;2.92;1.38;;;23.20;99.90;;;;;;4985315;28;20062;-67
2023/08/14 06:46:50;;;;;;;3.33;1.60;;;23.40;99.90;;;;;;5008029;28;20037;-66
2023/08/14 06:49:16;;;;;;;4.15;1.67;;;23.30;99.90;;;;;;5010150;28;20081;-66
2023/08/14 06:51:42;;;;;;;1.42;1.05;;;23.00;99.90;;;;;;5041022;28;20021;-66
2023/08/14 06:54:08;;;;;;;2.22;1.20;;;22.90;99.90;;;;;;5028534;28;20029;-66
2023/08/14 06:56:33;;;;;;;2.05;1.55;;;23.10;99.90;;;;;;5015560;28;20670;-65
2023/08/14 06:58:59;;;;;;;2.58;1.55;;;23.10;99.90;;;;;;5011196;28;20026;-65
2023/08/14 07:01:25;;;;;;;2.78;1.42;;;23.20;99.90;;;;;;5009969;28;20026;-65
2023/08/14 07:03:51;;;;;;;8.90;2.33;;;23.40;99.90;;;;;;5010429;28;20128;-65
2023/08/14 07:06:17;;;;;;;9.27;1.27;;;23.30;99.90;;;;;;5024717;28;20041;-65
2023/08/14 07:08:42;;;;;;;10.05;1.30;;;23.50;99.90;;;;;;5024465;28;20030;-65
2023/08/14 07:11:08;;;;;;;1.17;0.80;;;23.50;99.90;;;;;;5009662;28;20034;-66
2023/08/14 07:13:34;;;;;;;5.18;2.00;;;23.60;99.90;;;;;;5009252;28;20061;-65
2023/08/14 07:16:00;;;;;;;9.30;1.50;;;23.70;99.90;;;;;;5009696;28;20061;-65
2023/08/14 07:18:25;;;;;;;2.85;1.33;;;23.70;99.90;;;;;;5005777;28;20092;-65
2023/08/14 07:20:51;;;;;;;8.27;1.35;;;23.70;99.90;;;;;;5004919;28;20489;-65
2023/08/14 07:23:19;;;;;;;5.72;1.15;;;23.70;99.90;;;;;;5000331;28;20037;-64
2023/08/14 07:25:46;;;;;;;2.85;1.30;;;23.60;99.90;;;;;;5007548;28;20033;-64
2023/08/14 07:28:12;;;;;;;3.65;1.50;;;23.70;99.90;;;;;;5027994;28;20065;-66
2023/08/14 07:30:39;;;;;;;3.47;1.48;;;23.80;99.90;;;;;;5020496;28;20553;-64
2023/08/14 07:33:07;;;;;;;2.80;1.17;;;23.80;99.90;;;;;;4994567;28;20079;-65
2023/08/14 07:35:33;;;;;;;3.95;1.63;;;24.00;99.90;;;;;;5011329;28;20089;-65
2023/08/14 07:37:59;;;;;;;4.05;1.17;;;24.10;99.90;;;;;;5001463;28;20068;-65
2023/08/14 07:40:25;;;;;;;7.25;2.47;;;24.10;99.90;;;;;;5002031;28;20057;-65
2023/08/14 07:42:51;;;;;;;1.95;0.90;;;24.00;99.90;;;;;;5007175;28;20555;-65
2023/08/14 07:45:17;;;;;;;3.53;1.75;;;24.10;99.90;;;;;;5011463;28;20038;-66
2023/08/14 07:47:43;;;;;;;4.47;1.65;;;24.20;99.90;;;;;;5008777;28;20026;-66
2023/08/14 07:50:10;;;;;;;2.13;1.30;;;24.10;99.90;;;;;;4993391;28;20125;-66
2023/08/14 07:52:36;;;;;;;2.85;1.17;;;24.20;99.90;;;;;;5010963;28;20485;-65
2023/08/14 07:55:03;;;;;;;4.80;1.80;;;24.30;99.90;;;;;;5011321;28;20034;-66
2023/08/14 07:57:29;;;;;;;3.40;1.75;;;24.30;99.90;;;;;;5009349;28;20045;-66
2023/08/14 07:59:55;;;;;;;3.85;1.75;;;24.40;99.90;;;;;;5001489;28;20034;-66
2023/08/14 08:02:21;;;;;;;11.20;2.42;;;24.50;99.90;;;;;;5024292;28;20036;-67
2023/08/14 08:04:48;;;;;;;5.10;1.70;;;24.70;99.90;;;;;;5007435;28;20041;-67
2023/08/14 08:07:14;;;;;;;4.70;1.90;;;24.70;99.90;;;;;;4995175;28;20037;-67
2023/08/14 08:09:40;;;;;;;5.53;2.10;;;24.90;99.90;;;;;;5012565;28;20036;-67
2023/08/14 08:12:06;;;;;;;4.43;2.10;;;24.90;99.90;;;;;;5011226;28;20490;-67
2023/08/14 08:14:34;;;;;;;3.65;1.80;;;24.80;99.90;;;;;;5012173;28;20057;-67
2023/08/14 08:17:00;;;;;;;3.17;1.70;;;25.00;99.90;;;;;;5018999;28;20065;-67
2023/08/14 08:19:26;;;;;;;2.92;1.65;;;25.30;99.90;;;;;;5029702;28;20053;-66
2023/08/14 08:21:52;;;;;;;11.40;3.95;;;25.40;99.90;;;;;;5032717;28;20030;-67
2023/08/14 08:24:18;;;;;;;8.85;2.03;;;25.50;99.90;;;;;;5030183;28;20068;-67
2023/08/14 08:26:44;;;;;;;4.10;1.73;;;25.70;99.90;;;;;;5032346;28;20029;-67
2023/08/14 08:29:10;;;;;;;3.33;1.88;;;25.50;99.90;;;;;;5032289;28;20052;-68
2023/08/14 08:31:36;;;;;;;3.60;1.67;;;25.70;99.90;;;;;;5018699;28;20397;-68
2023/08/14 08:34:02;;;;;;;3.08;1.83;;;25.90;99.90;;;;;;5026384;28;20025;-67
2023/08/14 08:36:28;;;;;;;2.60;1.67;;;26.00;99.90;;;;;;5011837;28;20029;-65
2023/08/14 08:38:53;;;;;;;2.10;1.30;;;25.90;99.90;;;;;;5010788;28;20033;-67
2023/08/14 08:41:28;;;;;;;4.57;1.58;;;26.10;99.90;;;;;;5011867;28;20037;-66
2023/08/14 08:44:20;;;;;;;3.13;1.50;;;25.70;99.90;;;;;;5011537;28;20029;-66
2023/08/14 08:46:55;;;;;;;2.53;1.33;;;25.90;99.90;;;;;;5011784;28;20068;-68
2023/08/14 08:49:20;;;;;;;2.20;1.30;;;26.00;99.90;;;;;;5009892;28;20478;-68
2023/08/14 08:51:48;;;;;;;2.72;1.38;;;26.10;99.90;;;;;;5010514;28;20045;-60
2023/08/14 08:54:15;;;;;;;3.35;1.73;;;26.10;99.90;;;;;;5010280;28;20130;-62
2023/08/14 08:56:42;;;;;;;4.00;1.60;;;25.90;99.90;;;;;;5008336;28;20546;-63
2023/08/14 08:59:09;;;;;;;3.40;1.27;;;26.20;99.90;;;;;;4996562;28;20048;-63
2023/08/14 09:01:35;;;;;;;2.90;1.63;;;26.00;99.90;;;;;;5009097;28;20056;-63
2023/08/14 09:04:04;;;;;;;4.35;2.13;;;25.90;99.90;;;;;;5011379;28;20057;-63
2023/08/14 09:06:30;;;;;;;3.53;1.40;;;26.10;99.90;;;;;;5010784;28;20101;-63
2023/08/14 09:08:57;;;;;;;2.33;1.20;;;26.10;99.90;;;;;;5009894;28;20030;-64
2023/08/14 09:11:24;;;;;;;2.60;1.52;;;26.20;99.90;;;;;;5010312;28;20044;-63
2023/08/14 09:13:50;;;;;;;2.20;1.05;;;26.50;99.90;;;;;;5009493;28;20133;-64
2023/08/14 09:16:16;;;;;;;1.92;1.10;;;26.60;99.90;;;;;;5008814;28;20053;-63
2023/08/14 09:18:45;;;;;;;2.53;1.20;;;26.50;99.90;;;;;;5010531;28;20025;-63
2023/08/14 09:21:13;;;;;;;2.73;1.47;;;26.60;99.90;;;;;;5010525;28;20101;-64
2023/08/14 09:23:41;;;;;;;4.00;1.80;;;26.80;99.90;;;;;;5010069;28;20034;-64
2023/08/14 09:26:08;;;;;;;2.92;1.33;;;26.90;99.90;;;;;;5011747;28;20092;-64
2023/08/14 09:28:35;;;;;;;2.25;1.13;;;27.00;99.90;;;;;;5011710;28;20116;-64
2023/08/14 09:31:09;;;;;;;3.13;1.23;;;27.00;99.90;;;;;;5011501;28;20109;-63
2023/08/14 09:33:37;;;;;;;1.55;1.02;;;27.00;99.90;;;;;;5009562;28;20034;-63
2023/08/14 09:36:03;;;;;;;3.40;1.67;;;27.00;99.90;;;;;;5005892;28;20036;-57
2023/08/14 09:38:31;;;;;;;5.40;2.25;;;26.80;99.90;;;;;;4992128;28;20478;-57
2023/08/14 09:40:58;;;;;;;4.15;1.80;;;26.80;99.90;;;;;;5010059;28;20041;-58
2023/08/14 09:43:26;;;;;;;2.00;1.30;;;27.20;99.90;;;;;;5010219;28;20030;-57
2023/08/14 09:45:52;;;;;;;1.80;1.00;;;27.50;99.90;;;;;;5009718;28;20042;-59
2023/08/14 09:48:19;;;;;;;4.00;1.55;;;27.70;99.90;;;;;;5010049;28;20025;-58
2023/08/14 09:50:49;;;;;;;2.60;1.27;;;27.90;99.90;;;;;;5009965;28;20061;-58
2023/08/14 09:53:16;;;;;;;3.92;1.40;;;28.00;99.90;;;;;;5004836;28;20088;-59
2023/08/14 09:55:42;;;;;;;2.92;1.13;;;28.20;99.90;;;;;;4989434;28;20027;-57
2023/08/14 09:58:08;;;;;;;3.90;1.13;;;27.90;99.90;;;;;;4991292;28;20022;-56
2023/08/14 10:00:35;;;;;;;2.17;1.05;;;27.80;99.90;;;;;;4991268;28;20447;-57
2023/08/14 10:03:06;;;;;;;1.83;1.27;;;28.20;99.90;;;;;;4990695;28;20121;-58
2023/08/14 10:05:33;;;;;;;1.70;0.90;;;28.20;99.90;;;;;;4990612;28;20046;-56
2023/08/14 10:08:00;;;;;;;4.68;1.30;;;28.10;99.90;;;;;;4988985;28;20042;-56
2023/08/14 10:10:32;;;;;;;2.33;1.30;;;28.00;99.90;;;;;;5001999;28;20440;-57
2023/08/14 10:13:04;;;;;;;2.30;1.05;;;28.30;99.90;;;;;;5002251;28;20198;-56
2023/08/14 10:15:37;;;;;;;1.83;1.00;;;28.40;99.90;;;;;;5004615;28;20092;-58
2023/08/14 10:18:34;;;;;;;3.58;1.10;;;28.10;99.90;;;;;;4995768;28;20041;-57
2023/08/14 10:21:05;;;;;;;1.00;0.70;;;28.30;99.90;;;;;;4999894;28;20125;-57
2023/08/14 10:23:32;;;;;;;2.15;0.90;;;28.30;99.90;;;;;;5000853;28;20080;-57
2023/08/14 10:25:58;;;;;;;1.60;0.85;;;28.40;99.90;;;;;;5000603;28;20037;-59
2023/08/14 10:28:25;;;;;;;6.35;1.20;;;28.30;99.90;;;;;;5000227;28;20034;-58
2023/08/14 10:30:51;;;;;;;6.47;1.40;;;28.40;99.90;;;;;;5000636;28;20037;-55
2023/08/14 10:33:18;;;;;;;12.20;1.70;;;28.60;99.90;;;;;;5003227;28;20096;-57
2023/08/14 10:35:55;;;;;;;3.40;0.75;;;28.80;99.90;;;;;;5005512;28;20029;-57
2023/08/14 10:38:38;;;;;;;3.05;1.00;;;29.30;99.90;;;;;;5007620;28;20065;-62
2023/08/14 10:41:08;;;;;;;1.60;1.10;;;29.60;99.90;;;;;;5001388;28;20030;-61
2023/08/14 10:43:34;;;;;;;4.40;1.50;;;29.90;99.90;;;;;;4999003;28;20529;-61
2023/08/14 10:46:13;;;;;;;2.58;1.13;;;29.50;99.90;;;;;;5003116;28;20069;-61
2023/08/14 10:48:42;;;;;;;1.63;1.00;;;29.60;99.90;;;;;;5001788;28;20077;-60
2023/08/14 10:51:09;;;;;;;1.83;1.27;;;29.50;99.90;;;;;;5014117;28;20457;-60
2023/08/14 10:53:40;;;;;;;2.30;1.30;;;30.30;99.90;;;;;;4999129;28;20117;-60
2023/08/14 10:56:06;;;;;;;2.47;1.20;;;30.10;99.90;;;;;;5000318;28;20057;-61
2023/08/14 10:58:35;;;;;;;1.77;1.20;;;29.90;99.90;;;;;;4999125;28;20018;-60
2023/08/14 11:01:11;;;;;;;2.10;1.10;;;29.90;99.90;;;;;;4999217;28;20030;-60
2023/08/14 11:04:04;;;;;;;2.40;1.27;;;29.70;99.90;;;;;;4999455;28;20053;-60
2023/08/14 11:06:57;;;;;;;1.65;0.90;;;30.20;99.90;;;;;;4997975;28;20040;-61
2023/08/14 11:09:25;;;;;;;3.05;1.10;;;30.10;99.90;;;;;;5004892;28;20065;-61
2023/08/14 11:11:57;;;;;;;4.38;1.25;;;30.10;99.90;;;;;;5001171;28;20026;-61
2023/08/14 11:14:22;;;;;;;3.38;1.38;;;30.00;99.90;;;;;;5001995;28;20044;-61
2023/08/14 11:16:49;;;;;;;1.45;0.88;;;30.30;99.90;;;;;;4998607;28;20026;-59
2023/08/14 11:19:18;;;;;;;2.13;1.42;;;30.40;99.90;;;;;;5002319;28;20091;-60
2023/08/14 11:21:50;;;;;;;1.65;1.08;;;30.80;99.90;;;;;;5002760;28;20030;-60
2023/08/14 11:24:16;;;;;;;4.53;1.27;;;30.60;99.90;;;;;;5001226;28;20026;-61
2023/08/14 11:26:42;;;;;;;1.60;1.08;;;30.20;99.90;;;;;;5002614;28;20022;-60
2023/08/14 11:29:08;;;;;;;1.98;1.10;;;30.70;99.90;;;;;;5004445;28;20029;-60
2023/08/14 11:31:35;;;;;;;1.27;0.85;;;30.40;99.90;;;;;;5002424;28;20030;-60
2023/08/14 11:34:01;;;;;;;3.45;1.20;;;30.30;99.90;;;;;;5000912;28;20182;-60
2023/08/14 11:36:28;;;;;;;3.28;1.20;;;30.80;99.90;;;;;;5002259;28;20033;-61
2023/08/14 11:38:54;;;;;;;3.70;1.10;;;31.00;99.90;;;;;;5005415;28;20037;-61
2023/08/14 11:41:19;;;;;;;1.30;0.90;;;31.10;99.90;;;;;;5001865;28;20026;-60
2023/08/14 11:43:45;;;;;;;2.00;1.45;;;31.50;99.90;;;;;;5002238;28;20026;-61
2023/08/14 11:46:12;;;;;;;3.63;1.27;;;31.40;99.90;;;;;;5004510;28;20084;-61
2023/08/14 11:48:40;;;;;;;4.53;2.47;;;31.40;99.90;;;;;;5034343;28;20056;-61
2023/08/14 11:51:07;;;;;;;3.22;1.30;;;31.50;99.90;;;;;;5001423;28;20128;-61
2023/08/14 11:53:33;;;;;;;3.50;1.20;;;31.60;99.90;;;;;;5002183;28;20022;-60
2023/08/14 11:55:59;;;;;;;2.17;1.00;;;31.00;99.90;;;;;;5003370;28;20033;-61
2023/08/14 11:58:25;;;;;;;2.03;0.82;;;31.50;99.90;;;;;;5000258;28;20022;-61
2023/08/14 12:00:51;;;;;;;1.50;0.88;;;31.10;99.90;;;;;;5003053;28;20068;-61
2023/08/14 12:03:17;;;;;;;3.15;1.02;;;31.30;97.20;;;;;;5003379;28;20026;-61
2023/08/14 12:05:46;;;;;;;3.55;1.10;;;31.80;97.20;;;;;;5002756;28;20026;-61
2023/08/14 12:08:13;;;;;;;2.20;0.95;;;31.90;94.90;;;;;;5002455;28;20038;-60
2023/08/14 12:10:42;;;;;;;2.20;1.17;;;32.10;95.90;;;;;;5031988;28;20052;-61
2023/08/14 12:13:09;;;;;;;3.23;1.37;;;32.20;94.10;;;;;;5008683;28;20502;-60
2023/08/14 12:15:38;;;;;;;1.08;0.90;;;32.50;93.60;;;;;;5007925;28;20033;-61
2023/08/14 12:18:11;;;;;;;3.30;1.45;;;32.40;92.20;;;;;;5005289;28;20062;-61
2023/08/14 12:20:37;;;;;;;2.70;1.08;;;32.20;92.50;;;;;;5003193;28;20064;-61
2023/08/14 12:23:13;;;;;;;1.45;0.80;;;32.60;91.70;;;;;;4998887;28;20469;-61
2023/08/14 12:25:39;;;;;;;1.50;0.95;;;32.30;92.00;;;;;;4991743;28;20034;-61
2023/08/14 12:28:05;;;;;;;1.60;1.30;;;32.40;92.70;;;;;;4992872;28;20034;-61
2023/08/14 12:30:31;;;;;;;2.17;1.00;;;32.50;92.70;;;;;;5008937;28;20446;-61
2023/08/14 12:32:57;;;;;;;1.95;1.00;;;32.70;91.50;;;;;;5004287;28;20092;-60
2023/08/14 12:35:23;;;;;;;4.68;1.58;;;33.10;92.50;;;;;;5010683;28;20034;-60
2023/08/14 12:37:49;;;;;;;8.57;1.35;;;32.60;91.80;;;;;;5009943;28;20029;-60
2023/08/14 12:40:15;;;;;;;2.00;0.98;;;32.80;91.30;;;;;;5016220;28;20033;-59
2023/08/14 12:42:40;;;;;;;1.73;1.10;;;32.60;92.00;;;;;;5007017;28;20510;-60
2023/08/14 12:45:07;;;;;;;1.98;1.02;;;32.30;92.50;;;;;;4992560;28;20386;-59
2023/08/14 12:47:32;;;;;;;3.95;1.40;;;32.20;93.40;;;;;;4992641;28;20113;-61
2023/08/14 12:49:58;;;;;;;2.05;0.98;;;32.40;93.50;;;;;;4992531;28;20118;-60